• Join FlightAware (Why Join?)
  • Login
  • US Flag 
01:11AM EDT


 

Airport Tracker/Info


-or-


 

Live Flight TrackerFlight Track Log ✈ C-FHNX ✈ 24-Apr-2013 ✈ CYYC - CYYZ

Flight Track Log - Related Links

Times and Time Zones

All times are in EDT time to prevent confusion due to time zone crossing. See the C-FHNX flight status page for this flight to view local times or setup timezone preferences in your user account.

Time Position Orientation Groundspeed Altitude Reporting Facility
EDT Latitude Longitude Course Direction KTS MPH feet Rate Location/Type
09:45PM 51.0667 -114.0333 96° East 50 58 3,600  Level Edmonton Center
09:46PM 51.1167 -114.0333 360° North 160 184 5,000 1,500 Climbing Edmonton Center
09:47PM 51.1667 -114.0167 12° North 230 265 6,700 1,740 Climbing Edmonton Center
09:48PM 51.0833 -113.2149 90° East  Level FlightAware Approximate
09:48PM 51.2333 -113.9833 17° North 290 334 8,500  Level Edmonton Center
09:49PM 51.0801 -113.0143 94° East  Level FlightAware Approximate
09:49PM 51.2000 -113.8667 114° Southeast 310 357 10,800  Level Edmonton Center
09:50PM 51.0706 -112.8142 94° East  Level FlightAware Approximate
09:50PM 51.1667 -113.7167 109° East 360 414 12,700  Level Edmonton Center
09:51PM 51.0618 -112.6142 96° East  Level FlightAware Approximate
09:51PM 51.1000 -113.5833 128° Southeast 380 437 14,600  Level Edmonton Center
09:52PM 51.0667 -113.4167 108° East 390 449 16,600 2,040 Climbing Edmonton Center
09:53PM 51.0667 -113.2500 90° East 390 449 18,700 1,860 Climbing Edmonton Center
09:54PM 51.0667 -113.0500 90° East 400 460 20,400 1,500 Climbing Edmonton Center
09:55PM 51.0333 -112.8667 106° East 410 472 21,700 1,200 Climbing Edmonton Center
09:56PM 51.0333 -112.6667 90° East 440 506 22,900 1,200 Climbing Edmonton Center
09:57PM 51.0333 -112.4667 90° East 450 518 24,100 1,140 Climbing Edmonton Center
09:58PM 51.0333 -112.2667 90° East 460 529 25,200 1,020 Climbing Edmonton Center
09:59PM 51.0167 -112.0500 97° East 470 541 26,200 900 Climbing Edmonton Center
10:00PM 51.0000 -111.8333 97° East 480 552 27,100 900 Climbing Edmonton Center
10:01PM 50.9833 -111.6167 97° East 490 564 28,000 1,020 Climbing Edmonton Center
10:02PM 50.9833 -111.4000 90° East 490 564 29,200 1,020 Climbing Edmonton Center
10:03PM 50.9667 -111.1833 97° East 490 564 30,100 1,080 Climbing Edmonton Center
10:04PM 50.9500 -110.9667 97° East 490 564 31,400 1,140 Climbing Edmonton Center
10:05PM 50.9500 -110.7500 90° East 480 552 32,400 900 Climbing Edmonton Center
10:06PM 50.9333 -110.5667 98° East 480 552 33,200 780 Climbing Edmonton Center
10:07PM 50.9167 -110.3500 97° East 470 541 34,000 720 Climbing Edmonton Center
10:07PM 50.9167 -110.2667 90° East 480 552 34,300 480 Climbing Winnipeg Center
10:08PM 50.9167 -110.0500 90° East 480 552 34,800 420 Climbing Winnipeg Center
10:09PM 50.8833 -109.9167 112° Southeast 480 552 35,000 180 Climbing Edmonton Center
10:09PM 50.9000 -109.8333 72° East 480 552 35,000  Level Winnipeg Center
10:10PM 50.9000 -109.6333 90° East 490 564 35,000  Level Winnipeg Center
10:11PM 50.8667 -109.5167 114° Southeast 480 552 35,000  Level Edmonton Center
10:12PM 50.8667 -109.2667 90° East 480 552 35,000  Level Edmonton Center
10:13PM 50.8333 -109.0833 106° East 480 552 35,000  Level Edmonton Center
10:14PM 50.8333 -108.8333 90° East 490 564 35,000  Level Edmonton Center
10:15PM 50.8167 -108.6500 98° East 490 564 35,000  Level Edmonton Center
10:16PM 50.8167 -108.4167 90° East 490 564 35,000  Level Edmonton Center
10:16PM 50.8167 -108.3333 90° East 490 564 35,000  Level Winnipeg Center
10:17PM 50.8000 -108.1167 97° East 490 564 35,000  Level Winnipeg Center
10:18PM 50.7833 -107.9000 97° East 490 564 35,000  Level Winnipeg Center
10:19PM 50.7667 -107.6833 97° East 500 575 35,000  Level Winnipeg Center
10:20PM 50.7500 -107.4667 97° East 500 575 35,000  Level Winnipeg Center
10:21PM 50.7500 -107.2500 90° East 500 575 35,000  Level Winnipeg Center
10:22PM 50.7333 -107.1167 101° East 490 564 35,000  Level Edmonton Center
10:23PM 50.7000 -106.8833 103° East 490 564 35,000  Level Edmonton Center
10:23PM 50.7167 -106.8167 68° East 490 564 35,000  Level Winnipeg Center
10:24PM 50.7000 -106.6000 97° East 500 575 35,000  Level Winnipeg Center
10:25PM 50.6667 -106.4500 109° East 490 564 35,000  Level Edmonton Center
10:26PM 50.6500 -106.2333 97° East 490 564 35,000  Level Edmonton Center
10:26PM 50.6500 -106.1667 90° East 500 575 35,000  Level Winnipeg Center
10:27PM 50.6333 -105.9500 97° East 500 575 35,000  Level Winnipeg Center
10:28PM 50.6167 -105.7333 97° East 490 564 35,000  Level Winnipeg Center
10:29PM 50.6000 -105.5167 97° East 490 564 35,000  Level Winnipeg Center
10:30PM 50.5833 -105.3000 97° East 490 564 35,000 300 Level Winnipeg Center
10:31PM 50.5667 -105.1167 98° East 480 552 35,600 600 Climbing Winnipeg Center
10:32PM 50.5500 -104.9000 97° East 480 552 36,200 480 Climbing Winnipeg Center
10:33PM 50.5167 -104.6833 104° East 480 552 36,600 360 Climbing Winnipeg Center
10:34PM 50.5000 -104.5000 98° East 470 541 37,000 180 Climbing Winnipeg Center
10:35PM 50.4833 -104.2667 96° East 480 552 37,000  Level Winnipeg Center
10:36PM 50.4667 -104.0667 97° East 480 552 37,000  Level Winnipeg Center
10:37PM 50.4500 -103.8500 97° East 480 552 37,000  Level Winnipeg Center
10:38PM 50.4167 -103.6500 105° East 480 552 37,000  Level Winnipeg Center
10:39PM 50.4000 -103.4333 97° East 480 552 37,000  Level Winnipeg Center
10:40PM 50.3833 -103.2167 97° East 490 564 37,000  Level Winnipeg Center
10:41PM 50.3500 -103.0333 106° East 490 564 37,000  Level Winnipeg Center
10:42PM 50.3333 -102.8167 97° East 490 564 37,000  Level Winnipeg Center
10:43PM 50.3167 -102.6000 97° East 490 564 37,000  Level Winnipeg Center
10:44PM 50.2833 -102.3833 103° East 490 564 37,000  Level Winnipeg Center
10:45PM 50.2667 -102.1833 97° East 490 564 37,000  Level Winnipeg Center
10:46PM 50.2333 -101.9667 103° East 490 564 37,000  Level Winnipeg Center
10:47PM 50.2167 -101.7500 97° East 490 564 37,000  Level Winnipeg Center
10:48PM 50.1833 -101.5667 106° East 490 564 37,000  Level Winnipeg Center
10:49PM 50.1667 -101.3500 97° East 490 564 37,000  Level Winnipeg Center
10:50PM 50.1167 -101.1167 108° East 490 564 37,000  Level Winnipeg Center
10:51PM 50.1167 -100.9333 90° East 490 564 37,000  Level Winnipeg Center
10:52PM 50.0667 -100.7167 110° East 490 564 37,000  Level Winnipeg Center
10:53PM 50.0500 -100.5167 97° East 490 564 37,000  Level Winnipeg Center
10:54PM 50.0333 -100.3000 97° East 490 564 37,000  Level Winnipeg Center
10:55PM 49.9833 -100.0833 110° East 490 564 37,000  Level Winnipeg Center
10:56PM 49.9833 -99.9000 90° East 490 564 37,000  Level Winnipeg Center
10:57PM 49.9500 -99.6667 102° East 490 564 37,000  Level Winnipeg Center
10:58PM 49.9167 -99.4833 106° East 480 552 37,000  Level Winnipeg Center
10:59PM 49.8833 -99.2833 104° East 480 552 37,000  Level Winnipeg Center
11:00PM 49.8833 -99.0667 90° East 470 541 37,000  Level Winnipeg Center
11:01PM 49.8500 -98.8667 104° East 480 552 37,000  Level Winnipeg Center
11:02PM 49.8167 -98.6833 106° East 480 552 37,000  Level Winnipeg Center
11:03PM 49.8000 -98.4667 97° East 480 552 37,000  Level Winnipeg Center
11:04PM 49.7667 -98.2667 104° East 480 552 37,000  Level Winnipeg Center
11:05PM 49.7333 -98.0500 103° East 490 564 37,000  Level Winnipeg Center
11:06PM 49.7167 -97.8500 97° East 490 564 37,000  Level Winnipeg Center
11:07PM 49.7000 -97.6333 97° East 490 564 37,000  Level Winnipeg Center
11:08PM 49.6667 -97.4333 104° East 490 564 37,000  Level Winnipeg Center
11:09PM 49.6333 -97.2167 103° East 490 564 37,000  Level Winnipeg Center
11:10PM 49.6000 -97.0500 107° East 490 564 37,000  Level Winnipeg Center
11:11PM 49.5833 -96.8167 96° East 490 564 37,000  Level Winnipeg Center
11:12PM 49.5500 -96.6333 106° East 490 564 37,000  Level Winnipeg Center
11:13PM 49.5167 -96.4000 102° East 480 552 37,000  Level Winnipeg Center
11:14PM 49.4833 -96.2167 106° East 480 552 37,000  Level Winnipeg Center
11:15PM 49.4500 -96.0167 104° East 480 552 37,000  Level Winnipeg Center
11:16PM 49.4167 -95.8167 104° East 480 552 37,000  Level Winnipeg Center
11:17PM 49.3833 -95.6333 106° East 480 552 37,000  Level Winnipeg Center
11:18PM 49.3667 -95.4333 97° East 480 552 37,000  Level Winnipeg Center
11:19PM 49.3333 -95.2167 103° East 480 552 37,000  Level Winnipeg Center
11:20PM 49.3000 -95.0167 104° East 480 552 37,000  Level Winnipeg Center
11:21PM 49.2667 -94.8167 104° East 480 552 37,000  Level Winnipeg Center
11:22PM 49.2333 -94.6333 105° East 490 564 37,000  Level Winnipeg Center
11:23PM 49.2000 -94.4000 102° East 480 552 37,000  Level Winnipeg Center
11:24PM 49.1667 -94.2333 107° East 480 552 37,000  Level Winnipeg Center
11:25PM 49.1333 -94.0333 104° East 480 552 37,000  Level Winnipeg Center
11:26PM 49.1000 -93.8167 103° East 480 552 37,000  Level Winnipeg Center
11:27PM 49.0667 -93.6167 104° East 490 564 37,000  Level Winnipeg Center
11:28PM 49.0167 -93.4167 111° Southeast 480 552 37,000  Level Winnipeg Center
11:29PM 49.0000 -93.2167 97° East 490 564 37,000  Level Winnipeg Center
11:30PM 48.9500 -93.0500 114° Southeast 480 552 37,000  Level Winnipeg Center
11:31PM 48.9167 -92.8500 104° East 480 552 37,000  Level Winnipeg Center
11:32PM 48.9000 -92.6333 97° East 480 552 37,000  Level Winnipeg Center
11:33PM 48.8500 -92.4500 112° Southeast 480 552 37,000  Level Winnipeg Center
11:34PM 48.8167 -92.2500 104° East 480 552 37,000  Level Winnipeg Center
11:35PM 48.7667 -92.0500 111° Southeast 480 552 37,000  Level Winnipeg Center
11:36PM 48.7333 -91.8500 104° East 480 552 37,000  Level Winnipeg Center
11:37PM 48.7000 -91.6667 105° East 480 552 37,000  Level Winnipeg Center
11:38PM 48.6500 -91.4500 109° East 480 552 37,000  Level Winnipeg Center
11:39PM 48.6333 -91.2667 98° East 490 564 37,000  Level Winnipeg Center
11:40PM 48.5833 -91.0500 109° East 480 552 37,000  Level Winnipeg Center
11:41PM 48.5333 -90.8833 114° Southeast 480 552 37,000  Level Winnipeg Center
11:42PM 48.5000 -90.6833 104° East 490 564 37,000  Level Winnipeg Center
11:43PM 48.4667 -90.4833 104° East 490 564 37,000  Level Winnipeg Center
11:44PM 48.4167 -90.2833 111° Southeast 490 564 37,000  Level Winnipeg Center
11:45PM 48.3833 -90.0833 104° East 490 564 37,000  Level Winnipeg Center
11:46PM 48.3500 -89.9000 105° East 490 564 37,000  Level Winnipeg Center
11:47PM 48.3000 -89.7000 111° Southeast 490 564 37,000  Level Winnipeg Center
11:48PM 48.2500 -89.5333 114° Southeast 480 552 37,000  Level Winnipeg Center
11:49PM 48.2167 -89.3333 104° East 480 552 37,000  Level Winnipeg Center
11:50PM 48.1500 -89.1500 119° Southeast 480 552 37,000  Level Winnipeg Center
11:51PM 48.0833 -88.9500 116° Southeast 480 552 37,000  Level Winnipeg Center
11:52PM 48.0333 -88.7833 114° Southeast 490 564 37,000  Level Winnipeg Center
11:53PM 47.9667 -88.6167 121° Southeast 490 564 37,000  Level Winnipeg Center
11:54PM 47.9167 -88.4333 112° Southeast 490 564 37,000  Level Winnipeg Center
11:55PM 47.8500 -88.2833 123° Southeast 490 564 37,000  Level Toronto Center
11:56PM 47.8000 -88.1167 114° Southeast 490 564 37,000  Level Toronto Center
11:57PM 47.7333 -87.9167 116° Southeast 490 564 37,000  Level Toronto Center
11:58PM 47.6667 -87.7500 121° Southeast 490 564 37,000  Level Toronto Center
11:59PM 47.6000 -87.5667 118° Southeast 490 564 37,000  Level Toronto Center
12:00AM 47.5500 -87.3833 112° Southeast 490 564 37,000  Level Toronto Center
12:01AM 47.4833 -87.2333 123° Southeast 490 564 37,000  Level Toronto Center
12:02AM 47.4167 -87.0500 118° Southeast 480 552 37,000  Level Toronto Center
12:03AM 47.3667 -86.8667 112° Southeast 480 552 37,000  Level Toronto Center
12:04AM 47.2833 -86.6833 124° Southeast 480 552 37,000  Level Toronto Center
12:05AM 47.2333 -86.5167 114° Southeast 480 552 37,000  Level Toronto Center
12:06AM 47.1667 -86.3333 118° Southeast 480 552 37,000  Level Toronto Center
12:07AM 47.1000 -86.1667 120° Southeast 480 552 37,000  Level Toronto Center
12:09AM 46.9667 -85.8167 119° Southeast 480 552 37,000  Level Toronto Center
12:10AM 46.9167 -85.6667 116° Southeast 490 564 37,000  Level Toronto Center
12:11AM 46.8500 -85.4833 118° Southeast 480 552 37,000  Level Toronto Center
12:12AM 46.7833 -85.3000 118° Southeast 490 564 37,000  Level Toronto Center
12:13AM 46.7167 -85.1333 120° Southeast 490 564 37,000  Level Toronto Center
12:14AM 46.6500 -84.9500 118° Southeast 490 564 37,000  Level Toronto Center
12:15AM 46.5833 -84.7833 120° Southeast 490 564 37,000  Level Toronto Center
12:16AM 46.5333 -84.6167 114° Southeast 480 552 37,000  Level Toronto Center
12:17AM 46.4500 -84.4500 126° Southeast 490 564 37,000  Level Toronto Center
12:18AM 46.3833 -84.2667 118° Southeast 480 552 37,000  Level Toronto Center
12:19AM 46.3333 -84.1000 113° Southeast 490 564 37,000  Level Toronto Center
12:20AM 46.2667 -83.9333 120° Southeast 490 564 37,000  Level Toronto Center
12:21AM 46.2167 -83.7500 111° Southeast 490 564 37,000  Level Toronto Center
12:22AM 46.1500 -83.5833 120° Southeast 480 552 37,000  Level Toronto Center
12:23AM 46.0833 -83.4000 118° Southeast 490 564 37,000  Level Toronto Center
12:24AM 46.0333 -83.2333 113° Southeast 490 564 37,000  Level Toronto Center
12:25AM 45.9667 -83.0667 120° Southeast 480 552 37,000  Level Toronto Center
12:26AM 45.9000 -82.8833 118° Southeast 480 552 37,000  Level Toronto Center
12:27AM 45.8333 -82.7167 120° Southeast 480 552 37,000  Level Toronto Center
12:28AM 45.7833 -82.5500 113° Southeast 480 552 37,000  Level Toronto Center
12:29AM 45.7167 -82.3833 120° Southeast 480 552 37,000  Level Toronto Center
12:30AM 45.6500 -82.2167 120° Southeast 490 564 37,000  Level Toronto Center
12:31AM 45.5833 -82.0333 117° Southeast 480 552 37,000  Level Toronto Center
12:32AM 45.5333 -81.8667 113° Southeast 480 552 37,000  Level Toronto Center
12:33AM 45.4667 -81.7000 120° Southeast 480 552 37,000  Level Toronto Center
12:34AM 45.4000 -81.5333 120° Southeast 480 552 37,000 -480 Level Toronto Center
12:35AM 45.3333 -81.3667 120° Southeast 480 552 36,100 -960 Descending Toronto Center
12:36AM 45.2667 -81.2000 120° Southeast 480 552 35,100 -600 Descending Toronto Center
12:37AM 45.1833 -81.0833 135° Southeast 470 541 35,000 -60 Descending Toronto Center
12:38AM 45.0667 -80.9833 149° Southeast 460 529 35,000  Level Toronto Center
12:39AM 44.9500 -80.8833 149° Southeast 460 529 35,000 -420 Level Toronto Center
12:40AM 44.8667 -80.7833 140° Southeast 450 518 34,200 -1,740 Descending Toronto Center
12:41AM 44.7667 -80.6833 145° Southeast 440 506 31,600 -2,700 Descending Toronto Center
12:42AM 44.6667 -80.6000 149° Southeast 450 518 28,900 -2,700 Descending Toronto Center
12:43AM 44.5667 -80.5000 145° Southeast 440 506 26,300 -2,640 Descending Toronto Center
12:44AM 44.4667 -80.4333 155° Southeast 420 483 23,700 -2,580 Descending Toronto Center
12:45AM 44.3667 -80.3333 144° Southeast 410 472 21,200 -2,520 Descending Toronto Center
12:46AM 44.2667 -80.2667 154° Southeast 400 460 18,700 -2,460 Descending Toronto Center
12:47AM 44.1833 -80.1667 139° Southeast 390 449 16,300 -2,520 Descending Toronto Center
12:48AM 44.1000 -80.1000 150° Southeast 380 437 13,700 -2,040 Descending Toronto Center
12:49AM 44.0167 -80.0000 139° Southeast 360 414 12,300 -1,320 Descending Toronto Center
12:50AM 43.9500 -79.9333 144° Southeast 330 380 11,100 -1,380 Descending Toronto Center
12:51AM 43.8833 -79.8667 144° Southeast 310 357 9,600 -1,560 Descending Toronto Center
12:52AM 43.8167 -79.8000 144° Southeast 300 345 8,000 -1,500 Descending Toronto Center
12:53AM 43.7667 -79.7000 125° Southeast 280 322 6,600 -1,260 Descending Toronto Center
12:54AM 43.7833 -79.6333 71° East 250 288 5,500 -1,020 Descending Toronto Center
12:55AM 43.8333 -79.5667 44° Northeast 230 265 4,600 -780 Descending Toronto Center
12:56AM 43.8333 -79.4667 90° East 240 276 4,000 -600 Descending Toronto Center
12:57AM 43.8000 -79.4167 133° Southeast 220 253 3,400 -540 Descending Toronto Center
12:58AM 43.7667 -79.4500 216° Southwest 180 207 3,000 -540 Descending Toronto Center
12:59AM 43.7333 -79.5000 227° Southwest 160 184 2,400 -720 Descending Toronto Center
01:00AM 43.7000 -79.5167 200° South 150 173 1,600 -840 Descending Toronto Center
01:01AM 43.6833 -79.5667 245° Southwest 130 150 800 -600 Descending Toronto Center
01:02AM 43.6667 -79.5833 216° Southwest 100 115 500 -300 Descending Toronto Center